LSZHTBPB

Guest
Details From LSZH - Zurich
To TBPB - Barbados - Grantley Adams Intl
Flight Number -
Tags Generated
Created
Modified
Stats Distance 3,941 nm / 7,298 km
Max Altitude 0 ft / 0 m
Waypoints 4
Social Downloads 0
Likes 0
Share VATSIM

Download

Looking for another format? Having issues loading an existing format? Contact us
Advertisement - Login to hide

Notes

Generated

Route

LSZH PIXIS R1362 TBPB

ID Type Via Altitude Latitude Longitude Leg Dist Tot Dist Heading (true) Name
O LSZH APT - 0 ft / 0 m 47.45894˚ 8.53748˚ - 0 nm - -
PIXIS FIX - 0 ft / 0 m 46.94028˚ 3.75389˚ 197 nm 197 nm 263° / 259° -
R1362 FIX - 0 ft / 0 m 13.07091˚ -59.50749˚ 3743 nm 3940 nm 259° / 224° -
O TBPB APT - 0 ft / 0 m 13.07091˚ -59.50749˚ 0 nm 3940 nm 0° / 180° -

Altitude Profile

Advertisement - Login to hide

Weather


0- 5 10 15 20 25 30 35+ Temperature / ° C

Clouds and Precipitation
Forecast for 2017-12-18 18:00 UTC. Updated an hour ago

Ground ~20,000 ft ~40,000 ft Winds

LSZH

Details ICAO LSZH (ZRH)
Name Zurich
Region Switzerland
Timezone Europe/Zurich (UTC+1.0)
Stats Elevation 1,416 ft / 432 m (AMSL)
Location 47.463489° 8.549964°
Runways 3
Magnetic Variation 2.347° E

METAR

LSZH 181820Z 17002KT 9000 FEW009 OVC012 00/M01 Q1026 BECMG BKN010

Decode

TAF

TAF LSZH 181725Z 1818/1924 16005KT 9999 FEW010 BKN020 TX02/1914Z TNM00/1905Z TEMPO 1818/1910 BKN014 PROB40 TEMPO 1901/1910 3000 -SN BKN007

Decode

Departure Runways

ID Width Length Bearing (true) Bearing (mag) Surface Threshold Offset Overrun Length
10 197 ft / 60 m 8,180 ft / 2,493 m 95.98° 93.63° Concrete 0 ft / 0 m 197 ft / 60 m
14 197 ft / 60 m 10,816 ft / 3,297 m 137.30° 134.95° Concrete 492 ft / 150 m 0 ft / 0 m
16 197 ft / 60 m 12,137 ft / 3,699 m 155.00° 152.65° Concrete 0 ft / 0 m 197 ft / 60 m
28 197 ft / 60 m 8,180 ft / 2,493 m 276.01° 273.66° Concrete 0 ft / 0 m 197 ft / 60 m
32 197 ft / 60 m 10,816 ft / 3,297 m 317.32° 314.97° Concrete 0 ft / 0 m 197 ft / 60 m
34 197 ft / 60 m 12,137 ft / 3,699 m 335.01° 332.66° Concrete 1,542 ft / 470 m 0 ft / 0 m

TBPB

Details ICAO TBPB (BGI)
Name Barbados/Grantley Adams Intl
Region Barbados
Timezone America/Barbados (UTC-4.0)
Stats Elevation 168 ft / 51 m (AMSL)
Location 13.074614° -59.492206°
Runways 1
Magnetic Variation 15.613° W

METAR

TBPB 181800Z 09018KT 9999 VCSH SCT018 29/24 Q1013 NOSIG

Decode

TAF

Not found

Destination Runways

ID Width Length Bearing (true) Bearing (mag) Surface Threshold Offset Overrun Length
09 148 ft / 45 m 11,924 ft / 3,635 m 75.84° 91.45° Asphalt 0 ft / 0 m 174 ft / 53 m
27 148 ft / 45 m 11,924 ft / 3,635 m 255.85° 271.46° Asphalt 0 ft / 0 m 0 ft / 0 m

Approach Navaids

Runway Type Ident Frequency Range Bearing (true) Bearing (mag) Slope Elevation
09 Localiser IBGI 110.10 MHz 18 nm / 33 km 75.97° 91.59° - 168 ft / 51 m (AMSL)
09 Glidescope IBGI 110.10 MHz 10 nm / 19 km 75.85° 91.46° 3.00° 168 ft / 51 m (AMSL)